Time;durP1;ratioP1;P1;durP2;ratioP2;P2;SDS_P1;SDS_P2;PMS_P1;PMS_P2;Temp;Humidity;BMP_temperature;BMP_pressure;BME280_temperature;BME280_humidity;BME280_pressure;Samples;Min_cycle;Max_cycle;Signal;HPM_P1;HPM_P2
2022/11/11 00:01:25;;;;;;;9.25;4.80;;;5.80;99.90;;;5.06;100.00;98644.25;4957754;28;20065;-41
2022/11/11 00:03:55;;;;;;;5.57;4.07;;;5.80;99.90;;;5.01;100.00;98640.72;4958572;28;20056;-41
2022/11/11 00:06:21;;;;;;;8.57;4.57;;;5.70;99.90;;;5.00;100.00;98644.19;4965956;28;20435;-43
2022/11/11 00:08:47;;;;;;;8.60;4.38;;;5.70;99.90;;;5.03;100.00;98656.41;4959150;28;20035;-42
2022/11/11 00:11:14;;;;;;;10.48;4.97;;;5.70;99.90;;;5.02;100.00;98650.28;4963570;28;20156;-41
2022/11/11 00:13:42;;;;;;;7.43;4.65;;;5.70;99.90;;;5.01;100.00;98645.94;4958952;28;20033;-42
2022/11/11 00:16:17;;;;;;;6.60;4.65;;;5.70;99.90;;;4.98;100.00;98644.19;4952139;28;20120;-41
2022/11/11 00:27:12;;;;;;;6.03;4.35;;;5.60;99.90;;;4.87;100.00;98653.72;4948809;28;20117;-41
2022/11/11 00:29:38;;;;;;;8.23;4.78;;;5.60;99.90;;;4.83;100.00;98656.28;4951970;28;20515;-42
2022/11/11 00:32:21;;;;;;;9.10;4.85;;;5.50;99.90;;;4.81;100.00;98656.31;4947552;28;20035;-42
2022/11/11 00:37:34;;;;;;;8.80;4.55;;;5.50;99.90;;;4.76;100.00;98660.63;4956478;28;20170;-40
2022/11/11 00:39:59;;;;;;;10.38;4.93;;;5.50;99.90;;;4.73;100.00;98657.97;4952554;28;20029;-42
2022/11/11 00:42:26;;;;;;;8.82;4.90;;;5.50;99.90;;;4.71;100.00;98662.31;4948724;28;20031;-42
2022/11/11 00:44:52;;;;;;;7.25;5.10;;;5.50;99.90;;;4.70;100.00;98671.00;4951188;28;20047;-41
2022/11/11 00:52:49;;;;;;;10.77;4.70;;;5.40;99.90;;;4.66;100.00;98670.13;4951293;28;20035;-44
2022/11/11 00:55:14;;;;;;;10.38;4.20;;;5.40;99.90;;;4.58;100.00;98664.84;4951175;28;20039;-42
2022/11/11 00:57:40;;;;;;;6.93;4.63;;;5.40;99.90;;;4.65;100.00;98681.44;4952622;28;20389;-42
2022/11/11 01:00:06;;;;;;;7.25;4.45;;;5.40;99.90;;;4.57;100.00;98673.53;4951817;28;20019;-43
2022/11/11 01:02:32;;;;;;;9.80;4.38;;;5.40;99.90;;;4.64;100.00;98697.13;4951834;28;20370;-42
2022/11/11 01:04:58;;;;;;;6.68;4.47;;;5.40;99.90;;;4.63;100.00;98693.63;4949599;28;20039;-42
2022/11/11 01:07:23;;;;;;;9.20;5.43;;;5.40;99.90;;;4.66;100.00;98693.63;4950034;28;20501;-41
2022/11/11 01:09:50;;;;;;;7.95;4.85;;;5.40;99.90;;;4.62;100.00;98680.56;4946573;28;20034;-41
2022/11/11 01:12:16;;;;;;;7.28;4.90;;;5.40;99.90;;;4.63;100.00;98690.13;4946399;28;20150;-41
2022/11/11 01:14:42;;;;;;;8.27;4.57;;;5.40;99.90;;;4.61;100.00;98684.88;4946324;28;20034;-42
2022/11/11 01:17:08;;;;;;;7.47;4.45;;;5.40;99.90;;;4.59;100.00;98671.84;4945639;28;20551;-41
2022/11/11 01:19:34;;;;;;;6.88;4.80;;;5.30;99.90;;;4.59;100.00;98664.00;4946069;28;20050;-41
2022/11/11 01:22:00;;;;;;;8.48;4.95;;;5.30;99.90;;;4.60;100.00;98667.47;4948824;28;20027;-41
2022/11/11 01:24:26;;;;;;;7.22;3.83;;;5.30;99.90;;;4.59;100.00;98660.50;4943533;28;20042;-41
2022/11/11 01:26:52;;;;;;;8.30;4.68;;;5.30;99.90;;;4.60;100.00;98667.47;4945011;28;20130;-41
2022/11/11 01:29:18;;;;;;;8.23;4.47;;;5.30;99.90;;;4.61;100.00;98665.72;4946366;28;20114;-41
2022/11/11 01:31:44;;;;;;;9.57;4.63;;;5.40;99.90;;;4.61;100.00;98671.81;4947068;28;20488;-41
2022/11/11 01:34:09;;;;;;;6.35;4.30;;;5.30;99.90;;;4.59;100.00;98660.50;4944233;28;20039;-41
2022/11/11 01:36:35;;;;;;;10.65;4.65;;;5.30;99.90;;;4.49;100.00;98653.47;4947793;28;20037;-41
2022/11/11 01:39:01;;;;;;;7.85;4.55;;;5.30;99.90;;;4.57;100.00;98672.66;4948976;28;20041;-41
2022/11/11 01:41:33;;;;;;;8.15;4.22;;;5.30;99.90;;;4.54;100.00;98673.53;4950450;28;20065;-41
2022/11/11 01:44:18;;;;;;;7.72;4.07;;;5.30;99.90;;;4.53;100.00;98691.81;4948939;28;20035;-41
2022/11/11 01:46:59;;;;;;;9.02;5.00;;;5.30;99.90;;;4.51;100.00;98678.72;4954130;28;20038;-41
2022/11/11 01:49:48;;;;;;;8.95;4.38;;;5.20;99.90;;;4.50;100.00;98682.19;4949878;28;20162;-41
2022/11/11 01:52:29;;;;;;;7.15;4.43;;;5.20;99.90;;;4.47;100.00;98676.97;4958564;28;20028;-41
2022/11/11 01:55:09;;;;;;;10.55;4.80;;;5.20;99.90;;;4.49;100.00;98669.16;4949429;28;20504;-42
2022/11/11 01:57:51;;;;;;;10.25;4.30;;;5.20;99.90;;;4.46;100.00;98671.72;4954160;28;20506;-41
2022/11/11 02:00:19;;;;;;;7.53;4.20;;;5.20;99.90;;;4.49;100.00;98672.63;4969620;28;20065;-41
2022/11/11 02:02:50;;;;;;;5.80;3.83;;;5.20;99.90;;;4.48;100.00;98667.38;4956089;28;20044;-41
2022/11/11 02:08:33;;;;;;;7.25;3.95;;;5.20;99.90;;;4.46;100.00;98676.94;4953121;28;20033;-41
2022/11/11 02:14:34;;;;;;;5.68;3.47;;;5.20;99.90;;;4.47;100.00;98679.56;4957647;28;20046;-42
2022/11/11 02:16:51;;;;;;;8.35;4.00;;;5.20;99.90;;;4.40;100.00;98676.03;4943593;28;21895;-42
2022/11/11 02:19:31;;;;;;;8.80;4.03;;;5.20;99.90;;;4.45;100.00;98683.91;4944011;28;20038;-41
2022/11/11 02:22:01;;;;;;;8.13;4.30;;;5.20;99.90;;;4.43;100.00;98677.78;4948554;28;20035;-41
2022/11/11 02:24:29;;;;;;;5.53;3.70;;;5.20;99.90;;;4.39;100.00;98669.03;4944252;28;20330;-41
2022/11/11 02:26:56;;;;;;;7.38;4.20;;;5.10;99.90;;;4.41;100.00;98682.13;4947686;28;20062;-41
2022/11/11 02:29:22;;;;;;;6.70;4.13;;;5.20;99.90;;;4.42;100.00;98677.78;4943732;28;20034;-42
2022/11/11 02:31:48;;;;;;;5.50;3.95;;;5.20;99.90;;;4.42;100.00;98683.88;4957564;28;20636;-41
2022/11/11 02:34:14;;;;;;;10.93;4.18;;;5.20;99.90;;;4.40;100.00;98681.25;4944210;28;20043;-41
2022/11/11 02:36:41;;;;;;;8.20;3.90;;;5.10;99.90;;;4.34;100.00;98668.16;4944203;28;20117;-41
2022/11/11 02:39:07;;;;;;;9.32;4.05;;;5.20;99.90;;;4.41;100.00;98679.50;4940290;28;20118;-43
2022/11/11 02:44:17;;;;;;;6.53;3.97;;;5.20;99.90;;;4.43;100.00;98680.41;4947404;28;20101;-41
2022/11/11 02:46:43;;;;;;;5.88;3.92;;;5.20;99.90;;;4.43;100.00;98679.53;4945880;28;20493;-41
2022/11/11 02:49:09;;;;;;;10.50;4.28;;;5.20;99.90;;;4.44;100.00;98679.53;4940140;28;20100;-42
2022/11/11 02:51:34;;;;;;;9.10;4.40;;;5.20;99.90;;;4.38;100.00;98667.31;4937472;28;20508;-41
2022/11/11 02:54:02;;;;;;;7.25;4.13;;;5.20;99.90;;;4.46;100.00;98679.56;4949379;28;20066;-41
2022/11/11 02:59:12;;;;;;;9.65;4.53;;;5.20;99.90;;;4.48;100.00;98672.59;4946994;28;20114;-42
2022/11/11 03:01:38;;;;;;;11.32;4.35;;;5.30;99.90;;;4.49;100.00;98667.41;4946618;28;20035;-41
2022/11/11 03:04:04;;;;;;;6.13;4.35;;;5.30;99.90;;;4.50;100.00;98666.50;4947766;28;20475;-41
2022/11/11 03:06:30;;;;;;;5.70;4.43;;;5.30;99.90;;;4.50;100.00;98666.50;4948026;28;20649;-41
2022/11/11 03:08:56;;;;;;;10.00;4.22;;;5.30;99.90;;;4.52;100.00;98675.25;4937177;28;20337;-41
2022/11/11 03:11:28;;;;;;;6.32;3.95;;;5.30;99.90;;;4.50;100.00;98661.28;4945133;28;20071;-41
2022/11/11 03:13:58;;;;;;;9.90;4.30;;;5.30;99.90;;;4.50;100.00;98660.44;4939915;28;20073;-41
2022/11/11 03:19:08;;;;;;;8.80;4.35;;;5.20;99.90;;;4.48;100.00;98662.16;4944693;28;20101;-41
2022/11/11 03:21:34;;;;;;;8.52;4.18;;;5.30;99.90;;;4.48;100.00;98657.78;4950311;28;20039;-42
2022/11/11 03:24:00;;;;;;;7.18;4.80;;;5.30;99.90;;;4.49;100.00;98661.31;4940949;28;20132;-42
2022/11/11 03:26:25;;;;;;;11.40;4.32;;;5.30;99.90;;;4.48;100.00;98663.03;4947273;28;20035;-43
2022/11/11 03:28:51;;;;;;;9.27;4.22;;;5.30;99.90;;;4.48;100.00;98664.78;4943256;28;20059;-41
2022/11/11 03:31:17;;;;;;;7.65;4.40;;;5.30;99.90;;;4.46;100.00;98659.53;4944071;28;20043;-41
2022/11/11 03:33:43;;;;;;;5.40;4.00;;;5.30;99.90;;;4.46;100.00;98658.66;4943419;28;20122;-41
2022/11/11 03:36:09;;;;;;;7.25;4.38;;;5.20;99.90;;;4.40;100.00;98642.06;4944140;28;20097;-41
2022/11/11 03:38:34;;;;;;;6.03;4.25;;;5.20;99.90;;;4.40;100.00;98649.91;4945611;28;20031;-41
2022/11/11 03:41:00;;;;;;;4.72;3.47;;;5.20;99.90;;;4.43;100.00;98661.25;4946462;28;20303;-41
2022/11/11 03:43:33;;;;;;;5.70;4.05;;;5.20;99.90;;;4.41;100.00;98658.63;4945466;28;20508;-41
2022/11/11 03:46:00;;;;;;;;;;;5.20;99.90;;;4.36;100.00;98655.09;4947327;28;20035;-42
2022/11/11 03:48:29;;;;;;;8.57;4.28;;;5.20;99.90;;;4.37;100.00;98662.06;4950753;28;19918;-42
2022/11/11 03:50:55;;;;;;;6.13;4.22;;;5.20;99.90;;;4.35;100.00;98662.06;4946754;28;20027;-41
2022/11/11 03:53:21;;;;;;;5.72;3.92;;;5.10;99.90;;;4.33;100.00;98669.00;4948378;28;20023;-41
2022/11/11 03:55:48;;;;;;;9.02;4.18;;;5.10;99.90;;;4.33;100.00;98668.16;4948484;28;20043;-41
2022/11/11 03:58:15;;;;;;;9.23;4.82;;;5.10;99.90;;;4.32;100.00;98680.31;4941919;28;20042;-41
2022/11/11 04:00:43;;;;;;;6.53;4.25;;;5.10;99.90;;;4.30;100.00;98682.03;4941911;28;20709;-41
2022/11/11 04:11:40;;;;;;;6.00;4.40;;;5.00;99.90;;;4.25;100.00;98699.41;4949161;28;20097;-41
2022/11/11 04:16:56;;;;;;;6.55;3.88;;;5.00;99.90;;;4.18;100.00;98693.25;4966807;28;20101;-65
2022/11/11 04:22:07;;;;;;;10.32;4.00;;;5.00;99.90;;;4.21;100.00;98685.44;4968741;28;20061;-65
2022/11/11 04:27:19;;;;;;;7.22;4.22;;;5.00;99.90;;;4.24;100.00;98684.59;4963374;28;20153;-66
2022/11/11 04:29:50;;;;;;;6.65;4.10;;;5.00;99.90;;;4.25;100.00;98682.84;4962380;28;20097;-66
2022/11/11 04:32:34;;;;;;;5.82;3.90;;;5.00;99.90;;;4.26;100.00;98679.41;4961520;28;20531;-65
2022/11/11 04:35:03;;;;;;;8.20;3.78;;;5.00;99.90;;;4.27;100.00;98678.53;4960001;28;20042;-65
2022/11/11 04:37:33;;;;;;;6.82;4.22;;;5.00;99.90;;;4.27;100.00;98673.28;4965671;28;20042;-65
2022/11/11 04:42:42;;;;;;;6.75;4.20;;;5.00;99.90;;;4.24;100.00;98668.94;4971900;28;20047;-65
2022/11/11 04:45:34;;;;;;;8.90;4.57;;;5.00;99.90;;;4.24;100.00;98679.38;4967354;28;20022;-65
2022/11/11 04:48:09;;;;;;;9.00;4.30;;;5.00;99.90;;;4.24;100.00;98683.75;4977108;28;20118;-65
2022/11/11 04:50:38;;;;;;;6.90;4.22;;;5.00;99.90;;;4.21;100.00;98693.25;4967611;28;20169;-66
2022/11/11 04:53:07;;;;;;;8.95;4.40;;;5.00;99.90;;;4.21;100.00;98695.88;4967322;28;20026;-65
2022/11/11 04:58:20;;;;;;;8.00;5.07;;;5.00;99.90;;;4.21;100.00;98710.69;4966107;28;20053;-65
2022/11/11 05:00:46;;;;;;;7.93;4.78;;;5.00;99.90;;;4.20;100.00;98711.56;4964626;28;20035;-65
2022/11/11 05:03:17;;;;;;;8.55;4.10;;;4.90;99.90;;;4.20;100.00;98720.25;4962171;28;20049;-65
2022/11/11 05:08:55;;;;;;;8.20;4.25;;;4.90;99.90;;;4.17;100.00;98740.25;4969741;28;20037;-65
2022/11/11 05:11:30;;;;;;;5.60;4.38;;;4.90;99.90;;;4.16;100.00;98738.47;4975424;28;20475;-65
2022/11/11 05:22:36;;;;;;;6.32;4.50;;;4.90;99.90;;;4.09;100.00;98758.47;4962547;28;20129;-65
2022/11/11 05:27:47;;;;;;;10.65;5.63;;;4.90;99.90;;;4.03;100.00;98768.81;4964940;28;20093;-65
2022/11/11 05:30:15;;;;;;;7.80;4.70;;;4.80;99.90;;;4.00;100.00;98772.28;4969435;28;20034;-65
2022/11/11 05:32:42;;;;;;;6.43;4.90;;;4.80;99.90;;;3.97;100.00;98774.84;4974043;28;20466;-65
2022/11/11 05:35:11;;;;;;;6.22;4.75;;;4.70;99.90;;;3.96;100.00;98772.22;4973192;28;20030;-66
2022/11/11 05:37:36;;;;;;;7.43;5.13;;;4.70;99.90;;;3.93;100.00;98775.69;4979596;28;20030;-65
2022/11/11 05:40:03;;;;;;;10.82;5.22;;;4.70;99.90;;;3.87;100.00;98764.28;4977438;28;20113;-65
2022/11/11 05:42:29;;;;;;;9.85;5.28;;;4.70;99.90;;;3.91;100.00;98774.78;4974875;28;20489;-65
2022/11/11 05:44:54;;;;;;;7.60;4.93;;;4.70;99.90;;;3.88;100.00;98777.34;4972386;28;20065;-65
2022/11/11 05:47:20;;;;;;;7.45;4.78;;;4.70;99.90;;;3.90;100.00;98780.00;4972067;28;20041;-65
2022/11/11 05:49:46;;;;;;;8.13;5.10;;;4.60;99.90;;;3.88;100.00;98793.00;4972810;28;20049;-65
2022/11/11 05:52:15;;;;;;;8.00;4.82;;;4.60;99.90;;;3.88;100.00;98787.78;4977231;28;20049;-65
2022/11/11 05:54:41;;;;;;;7.25;5.30;;;4.60;99.90;;;3.86;100.00;98786.91;4970325;28;20108;-65
2022/11/11 05:57:07;;;;;;;7.85;5.38;;;4.60;99.90;;;3.87;100.00;98788.63;4976673;28;20097;-65
2022/11/11 05:59:32;;;;;;;9.35;5.35;;;4.60;99.90;;;3.88;100.00;98789.53;4976122;28;20117;-65
2022/11/11 06:01:58;;;;;;;9.63;5.60;;;4.60;99.90;;;3.87;100.00;98799.06;4970243;28;20042;-65
2022/11/11 06:04:24;;;;;;;8.20;5.13;;;4.60;99.90;;;3.88;100.00;98797.38;4968187;28;20204;-65
2022/11/11 06:06:50;;;;;;;8.88;5.47;;;4.60;99.90;;;3.88;100.00;98799.97;4965726;28;20030;-65
2022/11/11 06:09:51;;;;;;;9.57;5.63;;;4.60;99.90;;;3.90;100.00;98800.88;4970911;28;20045;-66
2022/11/11 06:12:16;;;;;;;7.32;4.88;;;4.70;99.90;;;3.92;100.00;98813.06;4973573;28;20080;-65
2022/11/11 06:14:55;;;;;;;7.53;5.28;;;4.70;99.90;;;3.94;100.00;98805.25;4967132;28;20093;-65
2022/11/11 06:17:20;;;;;;;13.80;6.00;;;4.70;99.90;;;3.93;100.00;98799.16;4951406;28;20068;-65
2022/11/11 06:19:46;;;;;;;8.15;5.13;;;4.70;99.90;;;3.94;100.00;98811.34;4974044;28;20027;-65
2022/11/11 06:22:12;;;;;;;7.50;5.03;;;4.70;99.90;;;3.94;100.00;98808.75;4972403;28;20050;-65
2022/11/11 06:24:37;;;;;;;8.20;5.07;;;4.80;99.90;;;3.99;100.00;98814.91;4974981;28;20023;-65
2022/11/11 06:27:03;;;;;;;9.77;5.38;;;4.80;99.90;;;4.00;100.00;98818.38;4979220;28;20257;-65
2022/11/11 06:29:29;;;;;;;10.52;5.55;;;4.80;99.90;;;4.02;100.00;98824.50;4975289;28;20448;-66
2022/11/11 06:31:54;;;;;;;9.68;5.40;;;4.80;99.90;;;4.04;100.00;98827.13;4979122;28;20374;-65
2022/11/11 06:34:20;;;;;;;9.70;5.40;;;4.80;99.90;;;4.05;100.00;98828.88;4975695;28;20420;-65
2022/11/11 06:36:46;;;;;;;6.97;5.25;;;4.80;99.90;;;4.07;100.00;98833.25;4980651;28;20053;-65
2022/11/11 06:39:11;;;;;;;13.45;5.00;;;4.80;99.90;;;4.11;100.00;98835.06;4972891;28;20516;-66
2022/11/11 06:41:37;;;;;;;7.82;4.50;;;4.80;99.90;;;4.17;100.00;98826.41;4978312;28;20042;-65
2022/11/11 06:44:03;;;;;;;6.53;4.15;;;4.90;99.90;;;4.22;100.00;98835.19;4976761;28;20492;-65
2022/11/11 06:46:29;;;;;;;8.50;4.70;;;5.00;99.90;;;4.27;100.00;98838.72;4980663;28;20030;-66
2022/11/11 06:48:54;;;;;;;7.80;4.57;;;5.00;99.90;;;4.33;100.00;98841.41;4979892;28;20045;-65
2022/11/11 06:51:20;;;;;;;9.10;4.75;;;5.10;99.90;;;4.37;100.00;98839.69;4980272;28;20033;-65
2022/11/11 06:53:46;;;;;;;8.10;5.22;;;5.10;99.90;;;4.40;100.00;98826.69;4977009;28;20030;-65
2022/11/11 06:56:12;;;;;;;10.43;5.75;;;5.20;99.90;;;4.44;100.00;98832.81;4976765;28;20082;-65
2022/11/11 06:58:38;;;;;;;6.90;5.32;;;5.20;99.90;;;4.46;100.00;98834.56;4995845;28;20034;-65
2022/11/11 07:01:05;;;;;;;10.95;5.60;;;5.20;99.90;;;4.50;100.00;98830.25;4976426;28;20346;-65
2022/11/11 07:03:32;;;;;;;7.88;5.97;;;5.20;99.90;;;4.54;100.00;98838.16;4979632;28;20397;-65
2022/11/11 07:06:03;;;;;;;11.73;6.07;;;5.30;99.90;;;4.58;100.00;98836.44;4978444;28;20026;-65
2022/11/11 07:08:30;;;;;;;11.10;6.45;;;5.30;99.90;;;4.61;100.00;98835.59;4972767;28;20026;-65
2022/11/11 07:10:56;;;;;;;10.77;6.03;;;5.30;99.90;;;4.63;100.00;98836.47;4981259;28;20041;-64
2022/11/11 07:13:22;;;;;;;10.48;6.35;;;5.40;99.90;;;4.65;100.00;98833.03;4977727;28;20493;-65
2022/11/11 07:15:48;;;;;;;10.75;6.15;;;5.40;99.90;;;4.69;100.00;98837.41;4971607;28;20460;-65
2022/11/11 07:18:14;;;;;;;11.07;6.13;;;5.50;99.90;;;4.69;100.00;98834.81;4968637;28;20120;-65
2022/11/11 07:20:39;;;;;;;9.77;5.97;;;5.50;99.90;;;4.76;100.00;98839.22;4975161;28;20026;-65
2022/11/11 07:23:05;;;;;;;8.85;6.00;;;5.50;99.90;;;4.83;100.00;98834.94;4969546;28;20045;-65
2022/11/11 07:25:31;;;;;;;9.35;5.72;;;5.60;99.90;;;4.90;100.00;98836.75;4977751;28;20030;-65
2022/11/11 07:27:57;;;;;;;10.18;5.70;;;5.60;99.90;;;4.96;100.00;98836.78;4969967;28;20511;-65
2022/11/11 07:30:23;;;;;;;12.63;6.00;;;5.70;99.90;;;4.99;100.00;98841.19;4978764;28;20032;-65
2022/11/11 07:32:51;;;;;;;10.57;6.30;;;5.70;99.90;;;5.06;100.00;98842.97;4976484;28;20503;-65
2022/11/11 07:35:17;;;;;;;7.68;5.35;;;5.80;99.90;;;5.13;100.00;98839.56;4972899;28;20038;-65
2022/11/11 07:37:44;;;;;;;8.52;5.40;;;5.80;99.90;;;5.17;100.00;98837.84;4965236;28;20041;-64
2022/11/11 07:40:13;;;;;;;9.75;5.43;;;5.90;99.90;;;5.26;100.00;98847.50;4973840;28;20094;-64
2022/11/11 07:42:40;;;;;;;7.43;5.13;;;6.00;99.90;;;5.34;100.00;98851.03;4972702;28;20234;-64
2022/11/11 07:45:08;;;;;;;7.60;4.90;;;6.00;99.90;;;5.45;100.00;98857.19;4968089;28;20034;-64
2022/11/11 07:47:34;;;;;;;10.98;5.90;;;6.10;99.90;;;5.55;100.00;98853.78;4966116;28;20133;-64
2022/11/11 07:50:02;;;;;;;9.70;5.65;;;6.20;99.90;;;5.63;100.00;98852.97;4969957;28;20133;-64
2022/11/11 07:52:28;;;;;;;7.35;5.60;;;6.30;99.90;;;5.69;100.00;98848.66;4974385;28;20045;-64
2022/11/11 07:54:53;;;;;;;8.90;5.45;;;6.40;99.90;;;5.76;100.00;98846.94;4960479;28;20664;-64
2022/11/11 07:57:19;;;;;;;9.93;5.55;;;6.40;99.90;;;5.83;100.00;98839.97;4961415;28;20807;-64
2022/11/11 07:59:45;;;;;;;16.10;6.40;;;6.50;99.90;;;5.87;100.00;98836.53;4975673;28;20042;-64
2022/11/11 08:02:11;;;;;;;10.23;5.90;;;6.60;99.90;;;5.95;100.00;98832.19;4971122;28;20085;-64
2022/11/11 08:04:37;;;;;;;8.15;5.72;;;6.70;99.90;;;6.07;100.00;98840.13;4972036;28;20408;-64
2022/11/11 08:07:03;;;;;;;11.10;6.00;;;6.70;99.90;;;6.09;100.00;98838.38;4972962;28;20022;-64
2022/11/11 08:09:29;;;;;;;12.18;6.18;;;6.80;99.90;;;5.99;100.00;98822.63;4974127;28;20045;-51
2022/11/11 08:14:39;;;;;;;12.82;6.13;;;6.80;99.90;;;6.17;100.00;98846.28;4968531;28;20694;-57
2022/11/11 08:17:04;;;;;;;10.75;5.75;;;6.90;99.90;;;6.19;100.00;98847.19;4973374;28;20034;-57
2022/11/11 08:19:30;;;;;;;9.30;5.40;;;6.90;99.90;;;6.23;100.00;98845.44;4974218;28;20030;-57
2022/11/11 08:21:56;;;;;;;11.82;5.03;;;6.90;99.90;;;6.28;100.00;98847.22;4975117;28;20511;-57
2022/11/11 08:24:22;;;;;;;9.27;4.97;;;7.00;99.90;;;6.32;100.00;98845.47;4974146;28;20038;-58
2022/11/11 08:26:48;;;;;;;9.00;5.40;;;7.00;99.90;;;6.33;100.00;98841.97;4975821;28;20035;-58
2022/11/11 08:29:14;;;;;;;6.00;4.53;;;7.00;99.90;;;6.37;100.00;98838.50;4978359;28;20027;-57
2022/11/11 08:31:40;;;;;;;7.55;4.65;;;7.10;99.90;;;6.41;100.00;98839.38;4976787;28;20508;-57
2022/11/11 08:34:05;;;;;;;5.50;4.05;;;7.10;99.90;;;6.44;100.00;98831.50;4976235;28;20147;-57
2022/11/11 08:36:31;;;;;;;6.10;3.97;;;7.10;99.90;;;6.46;100.00;98824.53;4978170;28;20073;-57
2022/11/11 08:38:57;;;;;;;5.35;3.67;;;7.20;99.90;;;6.49;100.00;98828.03;4977122;28;20444;-57
2022/11/11 08:41:23;;;;;;;6.90;3.92;;;7.20;99.90;;;6.49;100.00;98835.88;4983222;28;20038;-57
2022/11/11 08:43:53;;;;;;;5.38;3.65;;;7.20;99.90;;;6.50;100.00;98835.03;4976388;28;20496;-57
2022/11/11 08:46:19;;;;;;;7.25;3.67;;;7.20;99.90;;;6.56;100.00;98842.03;4976775;28;20034;-57
2022/11/11 08:48:45;;;;;;;6.50;4.03;;;7.20;99.90;;;6.51;100.00;98828.03;4972843;28;20026;-57
2022/11/11 08:51:10;;;;;;;7.70;4.00;;;7.30;99.90;;;6.59;100.00;98839.41;4973009;28;20478;-57
2022/11/11 08:53:36;;;;;;;7.45;3.83;;;7.30;99.90;;;6.60;100.00;98841.16;4975166;28;20037;-57
2022/11/11 08:56:03;;;;;;;7.22;4.20;;;7.30;99.90;;;6.61;100.00;98850.78;4977204;28;20372;-57
2022/11/11 08:58:29;;;;;;;10.45;3.70;;;7.30;99.90;;;6.64;100.00;98848.19;4979724;28;20472;-57
2022/11/11 09:00:55;;;;;;;10.18;4.47;;;7.30;99.90;;;6.69;100.00;98840.31;4975702;28;20034;-57
2022/11/11 09:03:21;;;;;;;6.55;3.95;;;7.40;99.90;;;6.76;100.00;98842.06;4973818;28;20034;-57
2022/11/11 09:05:46;;;;;;;6.80;4.00;;;7.40;99.90;;;6.86;100.00;98853.44;4978493;28;20396;-57
2022/11/11 09:08:13;;;;;;;6.60;3.97;;;7.50;99.90;;;6.93;100.00;98857.84;4970031;28;20054;-57
2022/11/11 09:10:38;;;;;;;5.60;3.95;;;7.60;99.90;;;7.00;100.00;98858.69;4976682;28;20062;-61
2022/11/11 09:13:05;;;;;;;7.07;4.13;;;7.60;99.90;;;7.06;100.00;98856.09;4977314;28;20112;-60
2022/11/11 09:15:32;;;;;;;7.55;4.15;;;7.80;99.90;;;7.12;100.00;98856.06;4978868;28;20042;-61
2022/11/11 09:17:57;;;;;;;9.88;4.25;;;7.80;99.90;;;7.15;100.00;98855.22;4976749;28;20042;-61
2022/11/11 09:20:24;;;;;;;10.43;4.55;;;7.90;99.90;;;7.25;100.00;98849.97;4978965;28;20034;-62
2022/11/11 09:22:50;;;;;;;5.93;4.03;;;7.90;99.90;;;7.37;100.00;98851.69;4966819;28;20056;-61
2022/11/11 09:25:16;;;;;;;12.02;5.25;;;8.00;99.90;;;7.38;100.00;98858.72;4977160;28;20038;-61
2022/11/11 09:27:43;;;;;;;11.50;4.43;;;8.10;99.90;;;7.40;100.00;98841.19;4977961;28;20070;-60
2022/11/11 09:30:10;;;;;;;5.85;4.63;;;8.10;99.90;;;7.48;100.00;98846.44;4978910;28;20085;-61
2022/11/11 09:32:36;;;;;;;7.93;4.60;;;8.20;99.90;;;7.57;100.00;98848.16;4973874;28;20038;-61
2022/11/11 09:35:03;;;;;;;7.55;4.70;;;8.30;99.90;;;7.65;100.00;98847.28;4979954;28;20026;-61
2022/11/11 09:37:28;;;;;;;7.93;4.35;;;8.40;99.90;;;7.73;100.00;98844.63;4977551;28;20038;-61
2022/11/11 09:39:57;;;;;;;9.15;4.18;;;8.50;99.90;;;7.84;100.00;98850.75;4979115;28;20062;-61
2022/11/11 09:42:28;;;;;;;12.40;5.20;;;8.50;99.90;;;7.91;100.00;98843.72;4970901;28;20484;-61
2022/11/11 09:45:19;;;;;;;14.13;4.63;;;8.60;99.90;;;8.01;100.00;98844.56;4976266;28;20045;-61
2022/11/11 09:48:15;;;;;;;7.60;4.50;;;8.70;99.90;;;8.09;100.00;98841.91;4979208;28;20366;-61
2022/11/11 09:50:42;;;;;;;8.65;4.90;;;8.80;99.90;;;8.25;100.00;98835.69;4973155;28;20124;-61
2022/11/11 09:53:27;;;;;;;7.93;4.03;;;8.90;99.90;;;8.36;100.00;98833.00;4971848;28;20159;-60
2022/11/11 09:56:00;;;;;;;7.45;4.20;;;9.00;99.90;;;8.50;100.00;98828.59;4972949;28;20035;-61
2022/11/11 09:58:35;;;;;;;6.13;4.30;;;9.20;99.90;;;8.56;100.00;98839.09;4979841;28;20026;-62
2022/11/11 10:01:15;;;;;;;8.40;5.00;;;9.40;99.90;;;8.56;100.00;98833.81;4975907;28;20057;-62
2022/11/11 10:03:50;;;;;;;8.43;4.93;;;9.40;99.90;;;8.71;100.00;98829.34;4974276;28;20499;-61
2022/11/11 10:06:22;;;;;;;8.23;5.20;;;9.50;99.90;;;8.82;100.00;98831.91;4978228;28;20031;-62
2022/11/11 10:09:10;;;;;;;8.65;4.55;;;9.70;99.90;;;8.91;100.00;98832.72;4977444;28;20045;-61
2022/11/11 10:11:59;;;;;;;10.65;4.82;;;9.70;99.90;;;8.93;100.00;98827.44;4976489;28;20027;-61
2022/11/11 10:14:41;;;;;;;8.18;4.30;;;9.90;99.90;;;9.05;100.00;98826.47;4997417;23;20033;-44
2022/11/11 10:17:41;;;;;;;7.88;4.13;;;9.90;99.90;;;9.14;100.00;98829.03;4993533;28;20034;-47
2022/11/11 10:20:43;;;;;;;10.55;4.15;;;9.90;99.90;;;9.24;100.00;98832.44;4987372;28;20045;-44
2022/11/11 10:23:16;;;;;;;6.38;3.92;;;10.10;99.90;;;9.26;100.00;98836.84;4975990;28;20400;-46
2022/11/11 10:26:21;;;;;;;6.68;3.97;;;10.10;99.90;;;9.30;100.00;98833.28;4972930;28;20035;-43
2022/11/11 10:28:50;;;;;;;11.25;4.72;;;10.10;99.90;;;9.32;100.00;98828.00;4972520;28;20038;-45
2022/11/11 10:31:20;;;;;;;11.88;4.93;;;10.10;99.90;;;9.36;100.00;98837.59;4979588;28;20117;-45
2022/11/11 10:33:59;;;;;;;9.45;4.43;;;10.10;99.90;;;9.42;100.00;98844.56;4972608;28;20536;-44
2022/11/11 10:36:27;;;;;;;7.00;4.50;;;10.20;99.90;;;9.43;100.00;98839.31;4979858;28;20105;-46
2022/11/11 10:39:00;;;;;;;11.95;4.75;;;10.30;99.90;;;9.59;100.00;98852.34;4976030;28;20037;-47
2022/11/11 10:41:36;;;;;;;6.30;3.97;;;10.40;99.90;;;9.67;100.00;98843.47;4975573;28;20038;-45
2022/11/11 10:44:17;;;;;;;7.65;4.53;;;10.40;99.90;;;9.73;100.00;98839.91;4975859;28;20117;-46
2022/11/11 10:46:59;;;;;;;9.90;4.60;;;10.40;99.90;;;9.85;100.00;98852.03;4970165;28;20022;-47
2022/11/11 10:49:30;;;;;;;6.95;4.60;;;10.50;99.90;;;9.91;100.00;98844.97;4966962;28;20157;-46
2022/11/11 10:52:19;;;;;;;7.50;4.28;;;10.60;99.90;;;9.97;100.00;98844.00;4991925;28;20195;-48
2022/11/11 10:54:54;;;;;;;7.20;4.15;;;10.60;99.90;;;10.02;100.00;98846.59;4977192;28;20093;-45
2022/11/11 10:57:37;;;;;;;9.45;4.50;;;10.70;99.90;;;10.07;100.00;98835.13;4975878;28;20073;-49
2022/11/11 11:00:06;;;;;;;;;;;10.70;99.90;;;10.12;100.00;98833.31;4964725;28;20027;-44
2022/11/11 11:02:58;;;;;;;8.63;3.55;;;10.70;99.90;;;10.20;100.00;98832.34;4975179;28;19922;-48
2022/11/11 11:06:03;;;;;;;5.53;3.50;;;10.80;99.90;;;10.31;100.00;98828.69;4967312;28;20033;-45
2022/11/11 11:08:39;;;;;;;7.22;4.22;;;10.90;99.90;;;10.38;100.00;98828.63;4971885;28;20034;-46
2022/11/11 11:11:15;;;;;;;9.32;4.40;;;11.00;99.90;;;10.44;100.00;98828.53;4970638;28;20022;-46
2022/11/11 11:13:51;;;;;;;8.48;3.72;;;11.10;99.90;;;10.42;100.00;98823.25;4976491;28;20034;-47
2022/11/11 11:16:25;;;;;;;7.00;4.07;;;11.10;99.90;;;10.48;100.00;98814.38;4969300;28;20034;-46
2022/11/11 11:19:16;;;;;;;7.90;3.95;;;11.10;99.90;;;10.50;100.00;98810.00;4971664;28;20046;-48
2022/11/11 11:21:59;;;;;;;5.75;3.88;;;11.10;99.90;;;10.48;100.00;98812.66;4971196;28;20034;-47
2022/11/11 11:24:29;;;;;;;7.05;3.78;;;11.10;99.90;;;10.43;100.00;98806.56;4976902;28;20054;-47
2022/11/11 11:26:58;;;;;;;5.43;3.70;;;11.10;99.90;;;10.42;100.00;98807.44;4974353;28;20514;-47
2022/11/11 11:29:36;;;;;;;6.57;3.92;;;11.10;99.90;;;10.39;100.00;98809.25;4975215;28;20480;-45
2022/11/11 11:32:20;;;;;;;6.63;3.90;;;11.00;99.90;;;10.32;100.00;98813.75;4975489;28;20034;-48
2022/11/11 11:34:51;;;;;;;7.80;4.07;;;11.00;99.90;;;10.26;100.00;98816.41;4970252;28;20034;-46
2022/11/11 11:37:19;;;;;;;8.55;4.25;;;10.90;99.90;;;10.22;100.00;98812.09;4976597;28;20030;-45
2022/11/11 11:39:46;;;;;;;5.78;3.80;;;10.80;99.90;;;10.13;100.00;98813.06;4975123;28;20392;-46
2022/11/11 11:42:33;;;;;;;6.13;3.88;;;10.80;99.90;;;10.10;100.00;98818.38;4977540;28;20308;-48
2022/11/11 11:45:24;;;;;;;6.88;3.40;;;10.70;99.90;;;10.03;100.00;98814.97;4974564;28;20360;-48